Impacts TAF Board
For situational awareness. Not to be used for flight planning purposes.
IDs:

KMCO - Orlando Intl, FL, US

Issued at 1737 UTC 22 Sep 2018
Updated at 1926 UTC 22 Sep 2018
Potential Impact None Slight Moderate High
Time<<23/20Z 23/21Z 23/22Z 23/23Z 24/00Z 24/01Z 24/02Z 24/03Z 24/04Z 24/05Z 24/06Z 24/07Z 24/08Z
Type PRVL PRVL PRVL PRVL
VIS >6 >6 >6 >6
CIG 250 250 250 250
Cover BKN BKN BKN BKN
FltCat VFR VFR VFR VFR
WX VCSH VCSH VCSH VCSH
WDir 90 90 90 90
WSpd 10 10 10 10
WGst -- -- -- --
Raw TAF
KMCO 221737Z 2218/2324 07011KT P6SM VCSH SCT040 SCT250
  FM230000 06005KT P6SM FEW040 BKN250
  FM231400 07007KT P6SM SCT030 SCT250
  FM231800 09010KT P6SM VCSH SCT040 BKN250


METAR Board
Radar Display
Forecast Discussion
For situational awareness. Not to be used for flight planning purposes.